sensor_id;sensor_type;location;lat;lon;timestamp;pressure;altitude;pressure_sealevel;temperature;humidity
40570;BME280;26270;34.428;-119.710;2023-03-03T00:01:03;101412.47;;;20.06;24.73
40570;BME280;26270;34.428;-119.710;2023-03-03T00:03:32;101414.20;;;19.93;25.11
40570;BME280;26270;34.428;-119.710;2023-03-03T00:06:03;101413.08;;;20.05;26.57
40570;BME280;26270;34.428;-119.710;2023-03-03T00:08:32;101412.70;;;19.81;24.11
40570;BME280;26270;34.428;-119.710;2023-03-03T00:11:00;101414.07;;;19.71;25.53
40570;BME280;26270;34.428;-119.710;2023-03-03T00:13:30;101417.77;;;19.52;23.71
40570;BME280;26270;34.428;-119.710;2023-03-03T00:16:13;101412.90;;;19.51;24.78
40570;BME280;26270;34.428;-119.710;2023-03-03T00:18:44;101418.13;;;19.65;26.25
40570;BME280;26270;34.428;-119.710;2023-03-03T00:21:27;101414.75;;;19.41;24.63
40570;BME280;26270;34.428;-119.710;2023-03-03T00:24:21;101412.71;;;19.29;25.40
40570;BME280;26270;34.428;-119.710;2023-03-03T00:26:51;101405.14;;;19.12;22.80
40570;BME280;26270;34.428;-119.710;2023-03-03T00:29:34;101412.05;;;19.09;24.61
40570;BME280;26270;34.428;-119.710;2023-03-03T00:32:20;101422.66;;;18.84;26.48
40570;BME280;26270;34.428;-119.710;2023-03-03T00:34:50;101425.28;;;18.56;23.94
40570;BME280;26270;34.428;-119.710;2023-03-03T00:37:25;101425.51;;;18.54;25.27
40570;BME280;26270;34.428;-119.710;2023-03-03T00:40:00;101422.42;;;18.37;22.95
40570;BME280;26270;34.428;-119.710;2023-03-03T00:42:29;101421.73;;;18.28;24.84
40570;BME280;26270;34.428;-119.710;2023-03-03T00:45:04;101429.36;;;18.14;26.23
40570;BME280;26270;34.428;-119.710;2023-03-03T00:47:45;101434.85;;;17.88;28.92
40570;BME280;26270;34.428;-119.710;2023-03-03T00:50:25;101434.34;;;17.79;30.55
40570;BME280;26270;34.428;-119.710;2023-03-03T00:53:01;101440.61;;;17.52;31.06
40570;BME280;26270;34.428;-119.710;2023-03-03T00:55:31;101440.91;;;17.33;31.88
40570;BME280;26270;34.428;-119.710;2023-03-03T00:58:00;101438.89;;;17.22;32.40
40570;BME280;26270;34.428;-119.710;2023-03-03T01:00:28;101449.07;;;17.29;32.74
40570;BME280;26270;34.428;-119.710;2023-03-03T01:02:56;101458.34;;;17.03;33.69
40570;BME280;26270;34.428;-119.710;2023-03-03T01:05:27;101462.34;;;17.03;33.74
40570;BME280;26270;34.428;-119.710;2023-03-03T01:07:55;101458.97;;;16.82;32.44
40570;BME280;26270;34.428;-119.710;2023-03-03T01:10:25;101458.18;;;16.69;32.86
40570;BME280;26270;34.428;-119.710;2023-03-03T01:12:55;101457.32;;;16.37;34.25
40570;BME280;26270;34.428;-119.710;2023-03-03T01:15:24;101455.58;;;16.42;34.50
40570;BME280;26270;34.428;-119.710;2023-03-03T01:17:53;101453.26;;;16.45;33.77
40570;BME280;26270;34.428;-119.710;2023-03-03T01:20:22;101450.72;;;16.34;34.54
40570;BME280;26270;34.428;-119.710;2023-03-03T01:22:50;101444.79;;;16.12;35.36
40570;BME280;26270;34.428;-119.710;2023-03-03T01:25:18;101441.48;;;16.29;35.27
40570;BME280;26270;34.428;-119.710;2023-03-03T01:27:47;101442.30;;;16.05;35.24
40570;BME280;26270;34.428;-119.710;2023-03-03T01:30:15;101447.78;;;16.27;34.58
40570;BME280;26270;34.428;-119.710;2023-03-03T01:32:44;101459.87;;;15.95;36.06
40570;BME280;26270;34.428;-119.710;2023-03-03T01:35:12;101460.23;;;16.01;37.71
40570;BME280;26270;34.428;-119.710;2023-03-03T01:37:40;101459.48;;;15.91;35.91
40570;BME280;26270;34.428;-119.710;2023-03-03T01:40:17;101460.31;;;15.93;36.14
40570;BME280;26270;34.428;-119.710;2023-03-03T01:42:46;101463.67;;;15.70;36.04
40570;BME280;26270;34.428;-119.710;2023-03-03T01:45:20;101466.94;;;15.62;36.07
40570;BME280;26270;34.428;-119.710;2023-03-03T01:47:55;101469.21;;;15.66;35.78
40570;BME280;26270;34.428;-119.710;2023-03-03T01:50:35;101472.48;;;15.62;36.66
40570;BME280;26270;34.428;-119.710;2023-03-03T01:53:11;101475.00;;;15.66;36.92
40570;BME280;26270;34.428;-119.710;2023-03-03T01:55:41;101474.47;;;15.60;37.11
40570;BME280;26270;34.428;-119.710;2023-03-03T01:58:14;101472.32;;;15.46;37.66
40570;BME280;26270;34.428;-119.710;2023-03-03T02:00:48;101479.11;;;15.43;37.84
40570;BME280;26270;34.428;-119.710;2023-03-03T02:03:21;101485.78;;;15.34;37.60
40570;BME280;26270;34.428;-119.710;2023-03-03T02:05:52;101490.15;;;15.27;37.90
40570;BME280;26270;34.428;-119.710;2023-03-03T02:08:24;101491.22;;;15.13;38.29
40570;BME280;26270;34.428;-119.710;2023-03-03T02:10:55;101494.57;;;15.01;38.98
40570;BME280;26270;34.428;-119.710;2023-03-03T02:13:25;101499.34;;;14.97;38.61
40570;BME280;26270;34.428;-119.710;2023-03-03T02:15:53;101501.01;;;14.90;39.09
40570;BME280;26270;34.428;-119.710;2023-03-03T02:18:21;101500.94;;;14.97;39.27
40570;BME280;26270;34.428;-119.710;2023-03-03T02:20:57;101498.89;;;14.84;39.29
40570;BME280;26270;34.428;-119.710;2023-03-03T02:23:36;101500.24;;;14.58;41.44
40570;BME280;26270;34.428;-119.710;2023-03-03T02:26:08;101498.07;;;14.69;41.81
40570;BME280;26270;34.428;-119.710;2023-03-03T02:28:38;101503.87;;;14.53;42.68
40570;BME280;26270;34.428;-119.710;2023-03-03T02:31:10;101511.44;;;14.48;42.75
40570;BME280;26270;34.428;-119.710;2023-03-03T02:33:40;101512.42;;;14.33;42.99
40570;BME280;26270;34.428;-119.710;2023-03-03T02:36:12;101508.71;;;14.25;44.06
40570;BME280;26270;34.428;-119.710;2023-03-03T02:38:46;101508.25;;;13.92;44.38
40570;BME280;26270;34.428;-119.710;2023-03-03T02:41:24;101504.58;;;14.04;44.32
40570;BME280;26270;34.428;-119.710;2023-03-03T02:43:58;101503.05;;;14.09;44.66
40570;BME280;26270;34.428;-119.710;2023-03-03T02:46:28;101507.22;;;14.05;44.38
40570;BME280;26270;34.428;-119.710;2023-03-03T02:48:56;101505.41;;;13.73;45.22
40570;BME280;26270;34.428;-119.710;2023-03-03T02:51:25;101504.77;;;13.53;45.39
40570;BME280;26270;34.428;-119.710;2023-03-03T02:53:53;101506.86;;;13.32;45.85
40570;BME280;26270;34.428;-119.710;2023-03-03T02:56:22;101508.02;;;13.52;45.81
40570;BME280;26270;34.428;-119.710;2023-03-03T02:58:51;101510.08;;;13.50;46.24
40570;BME280;26270;34.428;-119.710;2023-03-03T03:01:19;101510.11;;;13.47;46.45
40570;BME280;26270;34.428;-119.710;2023-03-03T03:03:48;101510.46;;;13.35;47.23
40570;BME280;26270;34.428;-119.710;2023-03-03T03:06:16;101516.23;;;13.36;46.86
40570;BME280;26270;34.428;-119.710;2023-03-03T03:08:45;101514.23;;;13.30;46.97
40570;BME280;26270;34.428;-119.710;2023-03-03T03:11:13;101515.64;;;13.14;47.39
40570;BME280;26270;34.428;-119.710;2023-03-03T03:13:42;101512.47;;;13.14;47.16
40570;BME280;26270;34.428;-119.710;2023-03-03T03:16:10;101516.01;;;13.20;47.26
40570;BME280;26270;34.428;-119.710;2023-03-03T03:18:38;101522.24;;;13.28;46.67
40570;BME280;26270;34.428;-119.710;2023-03-03T03:21:09;101520.14;;;12.99;46.84
40570;BME280;26270;34.428;-119.710;2023-03-03T03:23:37;101523.20;;;12.77;48.04
40570;BME280;26270;34.428;-119.710;2023-03-03T03:26:06;101527.75;;;12.71;48.29
40570;BME280;26270;34.428;-119.710;2023-03-03T03:28:34;101536.13;;;12.75;49.00
40570;BME280;26270;34.428;-119.710;2023-03-03T03:31:04;101541.32;;;12.63;49.58
40570;BME280;26270;34.428;-119.710;2023-03-03T03:33:32;101543.27;;;12.66;49.64
40570;BME280;26270;34.428;-119.710;2023-03-03T03:36:00;101544.98;;;12.35;50.15
40570;BME280;26270;34.428;-119.710;2023-03-03T03:38:29;101541.48;;;12.31;50.51
40570;BME280;26270;34.428;-119.710;2023-03-03T03:40:57;101535.76;;;12.26;50.80
40570;BME280;26270;34.428;-119.710;2023-03-03T03:43:26;101538.67;;;12.23;50.60
40570;BME280;26270;34.428;-119.710;2023-03-03T03:45:55;101547.09;;;12.30;50.36
40570;BME280;26270;34.428;-119.710;2023-03-03T03:48:23;101547.97;;;12.39;50.61
40570;BME280;26270;34.428;-119.710;2023-03-03T03:50:51;101544.54;;;12.47;50.80
40570;BME280;26270;34.428;-119.710;2023-03-03T03:53:20;101538.06;;;12.36;50.56
40570;BME280;26270;34.428;-119.710;2023-03-03T03:55:48;101531.13;;;12.29;50.72
40570;BME280;26270;34.428;-119.710;2023-03-03T03:58:17;101539.96;;;12.42;51.23
40570;BME280;26270;34.428;-119.710;2023-03-03T04:00:46;101547.79;;;12.46;51.85
40570;BME280;26270;34.428;-119.710;2023-03-03T04:03:15;101551.99;;;12.30;51.80
40570;BME280;26270;34.428;-119.710;2023-03-03T04:05:44;101557.65;;;12.34;51.66
40570;BME280;26270;34.428;-119.710;2023-03-03T04:08:12;101559.49;;;12.23;52.14
40570;BME280;26270;34.428;-119.710;2023-03-03T04:10:40;101556.75;;;12.17;52.99
40570;BME280;26270;34.428;-119.710;2023-03-03T04:13:09;101560.73;;;12.11;53.36
40570;BME280;26270;34.428;-119.710;2023-03-03T04:15:37;101564.94;;;12.09;53.78
40570;BME280;26270;34.428;-119.710;2023-03-03T04:18:06;101567.59;;;12.08;54.24
40570;BME280;26270;34.428;-119.710;2023-03-03T04:20:34;101568.80;;;12.07;54.81
40570;BME280;26270;34.428;-119.710;2023-03-03T04:23:03;101569.20;;;12.06;54.03
40570;BME280;26270;34.428;-119.710;2023-03-03T04:25:31;101571.29;;;11.94;54.69
40570;BME280;26270;34.428;-119.710;2023-03-03T04:28:00;101572.66;;;11.96;55.05
40570;BME280;26270;34.428;-119.710;2023-03-03T04:30:28;101574.87;;;11.86;55.37
40570;BME280;26270;34.428;-119.710;2023-03-03T04:32:57;101578.61;;;11.87;55.16
40570;BME280;26270;34.428;-119.710;2023-03-03T04:35:26;101578.52;;;11.70;55.43
40570;BME280;26270;34.428;-119.710;2023-03-03T04:37:54;101580.14;;;11.94;55.18
40570;BME280;26270;34.428;-119.710;2023-03-03T04:40:22;101582.49;;;11.69;55.43
40570;BME280;26270;34.428;-119.710;2023-03-03T04:42:50;101587.78;;;11.70;54.85
40570;BME280;26270;34.428;-119.710;2023-03-03T04:45:19;101595.60;;;11.80;54.89
40570;BME280;26270;34.428;-119.710;2023-03-03T04:47:47;101599.32;;;11.45;54.70
40570;BME280;26270;34.428;-119.710;2023-03-03T04:50:16;101598.96;;;11.55;54.65
40570;BME280;26270;34.428;-119.710;2023-03-03T04:52:44;101597.02;;;11.39;55.23
40570;BME280;26270;34.428;-119.710;2023-03-03T04:55:13;101599.95;;;11.28;54.83
40570;BME280;26270;34.428;-119.710;2023-03-03T04:57:41;101600.63;;;11.33;54.37
40570;BME280;26270;34.428;-119.710;2023-03-03T05:03:20;101610.24;;;11.28;53.61
40570;BME280;26270;34.428;-119.710;2023-03-03T05:05:49;101611.35;;;11.18;52.80
40570;BME280;26270;34.428;-119.710;2023-03-03T05:08:17;101618.36;;;10.94;52.70
40570;BME280;26270;34.428;-119.710;2023-03-03T05:10:45;101626.23;;;10.67;52.88
40570;BME280;26270;34.428;-119.710;2023-03-03T05:13:14;101627.29;;;10.61;52.17
40570;BME280;26270;34.428;-119.710;2023-03-03T05:15:42;101632.54;;;10.88;53.48
40570;BME280;26270;34.428;-119.710;2023-03-03T05:18:10;101633.76;;;10.96;52.57
40570;BME280;26270;34.428;-119.710;2023-03-03T05:20:40;101645.98;;;10.65;53.36
40570;BME280;26270;34.428;-119.710;2023-03-03T05:23:08;101652.92;;;10.79;53.60
40570;BME280;26270;34.428;-119.710;2023-03-03T05:25:36;101653.57;;;10.78;53.76
40570;BME280;26270;34.428;-119.710;2023-03-03T05:28:04;101654.68;;;10.85;53.90
40570;BME280;26270;34.428;-119.710;2023-03-03T05:30:33;101646.02;;;10.82;54.17
40570;BME280;26270;34.428;-119.710;2023-03-03T05:33:02;101640.67;;;10.85;53.16
40570;BME280;26270;34.428;-119.710;2023-03-03T05:35:30;101638.98;;;10.89;53.22
40570;BME280;26270;34.428;-119.710;2023-03-03T05:37:58;101635.54;;;10.79;54.10
40570;BME280;26270;34.428;-119.710;2023-03-03T05:40:28;101630.03;;;10.91;54.06
40570;BME280;26270;34.428;-119.710;2023-03-03T05:42:56;101637.06;;;10.82;54.10
40570;BME280;26270;34.428;-119.710;2023-03-03T05:45:25;101645.92;;;10.92;53.58
40570;BME280;26270;34.428;-119.710;2023-03-03T05:47:53;101647.48;;;10.97;53.97
40570;BME280;26270;34.428;-119.710;2023-03-03T05:50:22;101648.74;;;10.90;53.90
40570;BME280;26270;34.428;-119.710;2023-03-03T05:52:51;101646.13;;;10.85;54.36
40570;BME280;26270;34.428;-119.710;2023-03-03T05:55:19;101649.34;;;10.38;55.12
40570;BME280;26270;34.428;-119.710;2023-03-03T05:57:47;101646.12;;;10.14;55.26
40570;BME280;26270;34.428;-119.710;2023-03-03T06:00:17;101652.39;;;10.53;55.27
40570;BME280;26270;34.428;-119.710;2023-03-03T06:02:45;101656.03;;;10.44;55.63
40570;BME280;26270;34.428;-119.710;2023-03-03T06:05:14;101655.88;;;10.22;56.37
40570;BME280;26270;34.428;-119.710;2023-03-03T06:07:43;101648.03;;;10.45;56.15
40570;BME280;26270;34.428;-119.710;2023-03-03T06:10:11;101645.84;;;10.59;55.83
40570;BME280;26270;34.428;-119.710;2023-03-03T06:12:40;101640.30;;;10.60;55.97
40570;BME280;26270;34.428;-119.710;2023-03-03T06:15:09;101638.47;;;10.75;54.86
40570;BME280;26270;34.428;-119.710;2023-03-03T06:17:38;101637.87;;;10.44;55.58
40570;BME280;26270;34.428;-119.710;2023-03-03T06:20:07;101634.12;;;10.54;55.93
40570;BME280;26270;34.428;-119.710;2023-03-03T06:22:35;101627.07;;;10.56;55.15
40570;BME280;26270;34.428;-119.710;2023-03-03T06:25:04;101621.24;;;10.57;54.38
40570;BME280;26270;34.428;-119.710;2023-03-03T06:27:32;101625.50;;;10.57;55.97
40570;BME280;26270;34.428;-119.710;2023-03-03T06:30:01;101620.74;;;10.52;55.82
40570;BME280;26270;34.428;-119.710;2023-03-03T06:32:29;101617.83;;;10.48;56.32
40570;BME280;26270;34.428;-119.710;2023-03-03T06:34:57;101615.22;;;10.32;56.32
40570;BME280;26270;34.428;-119.710;2023-03-03T06:37:24;101611.94;;;10.37;56.70
40570;BME280;26270;34.428;-119.710;2023-03-03T06:39:53;101604.42;;;10.28;57.06
40570;BME280;26270;34.428;-119.710;2023-03-03T06:42:22;101603.37;;;10.20;56.79
40570;BME280;26270;34.428;-119.710;2023-03-03T06:44:50;101603.74;;;10.28;56.02
40570;BME280;26270;34.428;-119.710;2023-03-03T06:47:19;101604.85;;;10.11;55.28
40570;BME280;26270;34.428;-119.710;2023-03-03T06:49:47;101607.42;;;10.02;56.52
40570;BME280;26270;34.428;-119.710;2023-03-03T06:52:19;101601.85;;;10.08;56.71
40570;BME280;26270;34.428;-119.710;2023-03-03T06:54:48;101586.95;;;10.02;56.97
40570;BME280;26270;34.428;-119.710;2023-03-03T06:57:22;101575.83;;;9.97;56.34
40570;BME280;26270;34.428;-119.710;2023-03-03T06:59:53;101569.80;;;10.13;57.40
40570;BME280;26270;34.428;-119.710;2023-03-03T07:02:23;101563.92;;;9.84;57.94
40570;BME280;26270;34.428;-119.710;2023-03-03T07:04:52;101564.96;;;9.88;57.57
40570;BME280;26270;34.428;-119.710;2023-03-03T07:07:24;101567.17;;;9.93;57.89
40570;BME280;26270;34.428;-119.710;2023-03-03T07:09:55;101567.00;;;9.69;57.99
40570;BME280;26270;34.428;-119.710;2023-03-03T07:12:27;101565.75;;;9.94;58.80
40570;BME280;26270;34.428;-119.710;2023-03-03T07:15:10;101565.69;;;9.73;58.42
40570;BME280;26270;34.428;-119.710;2023-03-03T07:17:43;101563.49;;;9.66;59.40
40570;BME280;26270;34.428;-119.710;2023-03-03T07:20:18;101559.95;;;9.51;59.73
40570;BME280;26270;34.428;-119.710;2023-03-03T07:22:46;101559.74;;;9.59;59.21
40570;BME280;26270;34.428;-119.710;2023-03-03T07:25:22;101560.12;;;9.68;59.08
40570;BME280;26270;34.428;-119.710;2023-03-03T07:27:52;101557.52;;;9.72;58.28
40570;BME280;26270;34.428;-119.710;2023-03-03T07:30:25;101552.01;;;9.74;58.84
40570;BME280;26270;34.428;-119.710;2023-03-03T07:32:56;101543.59;;;9.78;59.02
40570;BME280;26270;34.428;-119.710;2023-03-03T07:35:38;101546.25;;;9.68;58.34
40570;BME280;26270;34.428;-119.710;2023-03-03T07:38:22;101539.34;;;9.73;58.57
40570;BME280;26270;34.428;-119.710;2023-03-03T07:40:53;101535.38;;;9.81;59.70
40570;BME280;26270;34.428;-119.710;2023-03-03T07:43:30;101533.05;;;9.79;59.21
40570;BME280;26270;34.428;-119.710;2023-03-03T07:46:16;101529.63;;;9.53;59.01
40570;BME280;26270;34.428;-119.710;2023-03-03T07:48:47;101528.52;;;9.72;59.11
40570;BME280;26270;34.428;-119.710;2023-03-03T07:51:19;101531.34;;;9.67;59.05
40570;BME280;26270;34.428;-119.710;2023-03-03T07:53:49;101526.70;;;9.74;59.72
40570;BME280;26270;34.428;-119.710;2023-03-03T07:56:25;101523.12;;;9.55;59.62
40570;BME280;26270;34.428;-119.710;2023-03-03T07:58:54;101517.61;;;9.57;58.81
40570;BME280;26270;34.428;-119.710;2023-03-03T08:01:33;101517.73;;;9.54;59.51
40570;BME280;26270;34.428;-119.710;2023-03-03T08:04:04;101521.46;;;9.63;60.61
40570;BME280;26270;34.428;-119.710;2023-03-03T08:06:41;101521.72;;;9.63;59.96
40570;BME280;26270;34.428;-119.710;2023-03-03T08:09:46;101520.75;;;9.46;60.11
40570;BME280;26270;34.428;-119.710;2023-03-03T08:12:37;101516.80;;;9.11;60.75
40570;BME280;26270;34.428;-119.710;2023-03-03T08:15:24;101522.65;;;9.12;60.93
40570;BME280;26270;34.428;-119.710;2023-03-03T08:17:53;101518.50;;;9.13;60.45
40570;BME280;26270;34.428;-119.710;2023-03-03T08:20:57;101515.18;;;9.15;60.72
40570;BME280;26270;34.428;-119.710;2023-03-03T08:23:25;101518.04;;;9.04;60.37
40570;BME280;26270;34.428;-119.710;2023-03-03T08:25:54;101518.11;;;9.21;60.23
40570;BME280;26270;34.428;-119.710;2023-03-03T08:28:23;101517.37;;;9.20;59.05
40570;BME280;26270;34.428;-119.710;2023-03-03T08:30:51;101517.97;;;9.22;60.12
40570;BME280;26270;34.428;-119.710;2023-03-03T08:33:19;101513.36;;;9.27;60.55
40570;BME280;26270;34.428;-119.710;2023-03-03T08:35:48;101511.73;;;9.12;60.09
40570;BME280;26270;34.428;-119.710;2023-03-03T08:38:19;101512.72;;;9.20;59.94
40570;BME280;26270;34.428;-119.710;2023-03-03T08:40:48;101514.01;;;8.90;60.34
40570;BME280;26270;34.428;-119.710;2023-03-03T08:43:17;101516.47;;;9.15;59.68
40570;BME280;26270;34.428;-119.710;2023-03-03T08:45:46;101521.85;;;9.23;59.38
40570;BME280;26270;34.428;-119.710;2023-03-03T08:48:15;101523.50;;;9.16;60.17
40570;BME280;26270;34.428;-119.710;2023-03-03T08:50:44;101520.92;;;9.29;60.59
40570;BME280;26270;34.428;-119.710;2023-03-03T08:53:13;101513.45;;;9.15;60.93
40570;BME280;26270;34.428;-119.710;2023-03-03T08:55:42;101508.95;;;9.07;60.90
40570;BME280;26270;34.428;-119.710;2023-03-03T08:58:10;101508.56;;;9.14;61.44
40570;BME280;26270;34.428;-119.710;2023-03-03T09:00:39;101508.61;;;8.90;61.88
40570;BME280;26270;34.428;-119.710;2023-03-03T09:03:07;101508.06;;;8.92;61.85
40570;BME280;26270;34.428;-119.710;2023-03-03T09:05:37;101503.85;;;9.14;61.86
40570;BME280;26270;34.428;-119.710;2023-03-03T09:08:08;101504.96;;;9.02;62.20
40570;BME280;26270;34.428;-119.710;2023-03-03T09:10:37;101500.72;;;9.02;62.04
40570;BME280;26270;34.428;-119.710;2023-03-03T09:13:13;101495.05;;;9.11;62.25
40570;BME280;26270;34.428;-119.710;2023-03-03T09:15:42;101489.08;;;8.71;63.12
40570;BME280;26270;34.428;-119.710;2023-03-03T09:18:15;101490.80;;;8.78;61.99
40570;BME280;26270;34.428;-119.710;2023-03-03T09:20:46;101488.86;;;8.88;62.43
40570;BME280;26270;34.428;-119.710;2023-03-03T09:23:34;101486.68;;;9.02;62.10
40570;BME280;26270;34.428;-119.710;2023-03-03T09:26:24;101486.99;;;9.02;61.84
40570;BME280;26270;34.428;-119.710;2023-03-03T09:28:54;101481.35;;;8.78;62.99
40570;BME280;26270;34.428;-119.710;2023-03-03T09:31:26;101478.62;;;8.76;63.06
40570;BME280;26270;34.428;-119.710;2023-03-03T09:33:55;101475.89;;;8.83;62.32
40570;BME280;26270;34.428;-119.710;2023-03-03T09:36:26;101474.07;;;8.86;63.57
40570;BME280;26270;34.428;-119.710;2023-03-03T09:38:56;101475.70;;;8.75;63.70
40570;BME280;26270;34.428;-119.710;2023-03-03T09:41:42;101472.87;;;8.78;63.93
40570;BME280;26270;34.428;-119.710;2023-03-03T09:45:01;101467.70;;;8.92;64.12
40570;BME280;26270;34.428;-119.710;2023-03-03T09:47:43;101467.01;;;9.04;63.76
40570;BME280;26270;34.428;-119.710;2023-03-03T09:50:25;101470.53;;;8.81;64.65
40570;BME280;26270;34.428;-119.710;2023-03-03T09:53:05;101465.34;;;8.89;64.72
40570;BME280;26270;34.428;-119.710;2023-03-03T09:55:47;101467.14;;;8.84;64.65
40570;BME280;26270;34.428;-119.710;2023-03-03T09:58:27;101468.94;;;8.86;65.26
40570;BME280;26270;34.428;-119.710;2023-03-03T10:01:08;101465.73;;;8.79;65.13
40570;BME280;26270;34.428;-119.710;2023-03-03T10:03:54;101468.97;;;8.83;65.59
40570;BME280;26270;34.428;-119.710;2023-03-03T10:06:29;101461.87;;;8.78;65.46
40570;BME280;26270;34.428;-119.710;2023-03-03T10:09:14;101452.83;;;8.76;65.42
40570;BME280;26270;34.428;-119.710;2023-03-03T10:11:51;101446.15;;;8.78;64.89
40570;BME280;26270;34.428;-119.710;2023-03-03T10:14:45;101437.58;;;8.62;65.29
40570;BME280;26270;34.428;-119.710;2023-03-03T10:17:26;101432.43;;;8.56;64.77
40570;BME280;26270;34.428;-119.710;2023-03-03T10:20:11;101424.05;;;8.74;65.64
40570;BME280;26270;34.428;-119.710;2023-03-03T10:22:49;101425.07;;;8.58;65.30
40570;BME280;26270;34.428;-119.710;2023-03-03T10:25:28;101424.43;;;8.54;65.93
40570;BME280;26270;34.428;-119.710;2023-03-03T10:28:18;101427.96;;;8.68;65.50
40570;BME280;26270;34.428;-119.710;2023-03-03T10:30:54;101426.53;;;8.71;65.72
40570;BME280;26270;34.428;-119.710;2023-03-03T10:33:33;101422.96;;;8.47;65.41
40570;BME280;26270;34.428;-119.710;2023-03-03T10:36:19;101417.46;;;8.50;66.28
40570;BME280;26270;34.428;-119.710;2023-03-03T10:39:00;101408.20;;;8.53;66.60
40570;BME280;26270;34.428;-119.710;2023-03-03T10:41:42;101403.70;;;8.40;67.42
40570;BME280;26270;34.428;-119.710;2023-03-03T10:44:28;101394.15;;;8.52;67.34
40570;BME280;26270;34.428;-119.710;2023-03-03T10:47:12;101387.73;;;8.27;68.84
40570;BME280;26270;34.428;-119.710;2023-03-03T10:49:54;101391.90;;;8.25;68.67
40570;BME280;26270;34.428;-119.710;2023-03-03T10:52:33;101387.64;;;8.29;68.24
40570;BME280;26270;34.428;-119.710;2023-03-03T10:55:26;101383.41;;;8.41;67.47
40570;BME280;26270;34.428;-119.710;2023-03-03T10:58:08;101379.70;;;8.35;66.32
40570;BME280;26270;34.428;-119.710;2023-03-03T11:00:44;101370.17;;;8.34;67.33
40570;BME280;26270;34.428;-119.710;2023-03-03T11:03:33;101366.27;;;8.34;66.46
40570;BME280;26270;34.428;-119.710;2023-03-03T11:06:08;101370.98;;;8.21;67.14
40570;BME280;26270;34.428;-119.710;2023-03-03T11:08:45;101371.78;;;8.20;67.73
40570;BME280;26270;34.428;-119.710;2023-03-03T11:11:19;101364.73;;;8.12;68.78
40570;BME280;26270;34.428;-119.710;2023-03-03T11:13:58;101366.23;;;8.40;68.53
40570;BME280;26270;34.428;-119.710;2023-03-03T11:16:40;101365.66;;;8.25;68.61
40570;BME280;26270;34.428;-119.710;2023-03-03T11:19:26;101364.85;;;8.23;68.64
40570;BME280;26270;34.428;-119.710;2023-03-03T11:22:06;101369.46;;;8.27;69.91
40570;BME280;26270;34.428;-119.710;2023-03-03T11:24:48;101374.28;;;8.31;70.58
40570;BME280;26270;34.428;-119.710;2023-03-03T11:27:29;101375.29;;;8.32;71.13
40570;BME280;26270;34.428;-119.710;2023-03-03T11:30:10;101371.57;;;8.26;71.28
40570;BME280;26270;34.428;-119.710;2023-03-03T11:32:50;101374.26;;;8.27;72.03
40570;BME280;26270;34.428;-119.710;2023-03-03T11:35:25;101369.32;;;8.22;72.11
40570;BME280;26270;34.428;-119.710;2023-03-03T11:38:02;101363.11;;;8.31;71.24
40570;BME280;26270;34.428;-119.710;2023-03-03T11:40:44;101364.73;;;8.43;71.16
40570;BME280;26270;34.428;-119.710;2023-03-03T11:43:17;101365.48;;;8.44;71.71
40570;BME280;26270;34.428;-119.710;2023-03-03T11:45:52;101358.90;;;8.42;71.11
40570;BME280;26270;34.428;-119.710;2023-03-03T11:48:31;101352.88;;;8.30;70.59
40570;BME280;26270;34.428;-119.710;2023-03-03T11:51:05;101353.07;;;8.21;70.46
40570;BME280;26270;34.428;-119.710;2023-03-03T11:53:44;101355.46;;;8.31;70.71
40570;BME280;26270;34.428;-119.710;2023-03-03T11:56:22;101349.77;;;8.13;70.35
40570;BME280;26270;34.428;-119.710;2023-03-03T11:59:01;101341.81;;;8.16;70.38
40570;BME280;26270;34.428;-119.710;2023-03-03T12:01:34;101336.53;;;8.25;70.80
40570;BME280;26270;34.428;-119.710;2023-03-03T12:04:04;101334.63;;;8.15;70.83
40570;BME280;26270;34.428;-119.710;2023-03-03T12:06:52;101333.19;;;8.39;70.29
40570;BME280;26270;34.428;-119.710;2023-03-03T12:09:32;101332.69;;;8.17;70.73
40570;BME280;26270;34.428;-119.710;2023-03-03T12:12:06;101331.82;;;8.41;71.77
40570;BME280;26270;34.428;-119.710;2023-03-03T12:14:47;101335.16;;;7.98;73.07
40570;BME280;26270;34.428;-119.710;2023-03-03T12:17:30;101333.38;;;8.08;72.66
40570;BME280;26270;34.428;-119.710;2023-03-03T12:20:05;101337.15;;;7.90;72.32
40570;BME280;26270;34.428;-119.710;2023-03-03T12:22:42;101342.23;;;7.86;71.86
40570;BME280;26270;34.428;-119.710;2023-03-03T12:25:23;101341.63;;;7.95;71.25
40570;BME280;26270;34.428;-119.710;2023-03-03T12:27:59;101340.12;;;7.99;70.82
40570;BME280;26270;34.428;-119.710;2023-03-03T12:30:40;101336.88;;;7.91;71.21
40570;BME280;26270;34.428;-119.710;2023-03-03T12:33:20;101329.50;;;7.92;70.30
40570;BME280;26270;34.428;-119.710;2023-03-03T12:35:56;101328.91;;;8.08;70.29
40570;BME280;26270;34.428;-119.710;2023-03-03T12:38:37;101327.06;;;8.05;70.29
40570;BME280;26270;34.428;-119.710;2023-03-03T12:41:17;101322.79;;;8.16;70.02
40570;BME280;26270;34.428;-119.710;2023-03-03T12:43:54;101325.41;;;8.04;69.77
40570;BME280;26270;34.428;-119.710;2023-03-03T12:46:34;101322.35;;;8.10;69.57
40570;BME280;26270;34.428;-119.710;2023-03-03T12:49:07;101322.65;;;8.04;69.76
40570;BME280;26270;34.428;-119.710;2023-03-03T12:51:44;101326.94;;;8.07;70.12
40570;BME280;26270;34.428;-119.710;2023-03-03T12:54:32;101324.42;;;8.09;70.34
40570;BME280;26270;34.428;-119.710;2023-03-03T12:57:14;101329.49;;;8.02;71.29
40570;BME280;26270;34.428;-119.710;2023-03-03T12:59:52;101331.35;;;8.16;70.80